Terminal Aerodrome Forecast
Issued by NWS

Home | Current Version | Previous Version | Text Only | Print | Product List | Glossary On
Versions: 1 2 3 4 5 6 7 8 9 10 11 12 13 14 15 16 17 18 19 20 21
000
FTAK31 PANC 311140
TAFADQ
TAF
PADQ 311140Z 3112/0112 30006KT P6SM SKC
     FM311500 VRB06KT P6SM SCT035 OVC070
     FM311800 08009KT 4SM -SN SCT010 OVC025
     FM312100 06012KT 5SM -RA BR SCT010 OVC025
     FM010500 25008KT P6SM -RA SCT025 OVC035=

USA.gov is the U.S. government's official web portal to all federal, state and local government web resources and services.